Archival Weather

Half Moon Bay

Half Moon Bay, California (KHAF)

Report from: Wednesday, December 6, 2023 8:15 AM PST
Current time: Saturday, February 24, 2024 8:39 AM PST

Current weather – Weather history – Daily summaries
Weather forecast

Present weatherMist
Temperature13.0°C (55.4°F)
Dew point13.0°C (55.4°F)
Winds 4 kts (2.1 m/s, 4.6 mph) Vrb
Winds variableWinds variable
Visibility3960 ft. (1.2 km)
Clouds Ceiling: Overcast 200 ft. (61 m)
Altimeter30.08 in.Hg (1019 mB)
Relative humidity100 %
Density altitude-211 ft. (-64 m)
Remarks Fully automated report
Automated weather observing station with precipitation discriminator
Flight conditions Low Instrument Meteorological Conditions
Raw dataKHAF 061615Z AUTO VRB04KT 3/4SM BR OVC002 13/13 A3008 RMK AO2
An error has occurred. This application may no longer respond until reloaded. Reload 🗙